sensor_id;sensor_type;location;lat;lon;timestamp;P1;durP1;ratioP1;P2;durP2;ratioP2
982;SDS011;480;48.124;11.578;2023-07-13T00:00:08;3.40;;;3.10;;
982;SDS011;480;48.124;11.578;2023-07-13T00:02:36;4.37;;;3.00;;
982;SDS011;480;48.124;11.578;2023-07-13T00:05:04;3.60;;;3.20;;
982;SDS011;480;48.124;11.578;2023-07-13T00:07:33;2.97;;;2.70;;
982;SDS011;480;48.124;11.578;2023-07-13T00:10:00;3.43;;;2.77;;
982;SDS011;480;48.124;11.578;2023-07-13T00:12:28;4.60;;;3.13;;
982;SDS011;480;48.124;11.578;2023-07-13T00:14:56;4.40;;;4.10;;
982;SDS011;480;48.124;11.578;2023-07-13T00:17:25;3.67;;;2.77;;
982;SDS011;480;48.124;11.578;2023-07-13T00:19:52;2.60;;;2.40;;
982;SDS011;480;48.124;11.578;2023-07-13T00:22:20;3.13;;;2.90;;
982;SDS011;480;48.124;11.578;2023-07-13T00:24:50;2.90;;;2.70;;
982;SDS011;480;48.124;11.578;2023-07-13T00:27:18;3.20;;;2.90;;
982;SDS011;480;48.124;11.578;2023-07-13T00:29:45;3.10;;;2.83;;
982;SDS011;480;48.124;11.578;2023-07-13T00:32:12;3.93;;;2.70;;
982;SDS011;480;48.124;11.578;2023-07-13T00:34:39;3.20;;;2.90;;
982;SDS011;480;48.124;11.578;2023-07-13T00:37:06;4.07;;;3.10;;
982;SDS011;480;48.124;11.578;2023-07-13T00:39:34;2.90;;;2.70;;
982;SDS011;480;48.124;11.578;2023-07-13T00:42:03;3.30;;;3.07;;
982;SDS011;480;48.124;11.578;2023-07-13T00:44:30;3.97;;;3.03;;
982;SDS011;480;48.124;11.578;2023-07-13T00:46:57;3.07;;;2.77;;
982;SDS011;480;48.124;11.578;2023-07-13T00:49:25;3.33;;;3.03;;
982;SDS011;480;48.124;11.578;2023-07-13T00:51:57;3.73;;;2.87;;
982;SDS011;480;48.124;11.578;2023-07-13T00:54:28;2.73;;;2.53;;
982;SDS011;480;48.124;11.578;2023-07-13T00:56:59;8.10;;;3.40;;
982;SDS011;480;48.124;11.578;2023-07-13T00:59:30;2.97;;;2.37;;
982;SDS011;480;48.124;11.578;2023-07-13T01:02:01;2.43;;;2.30;;
982;SDS011;480;48.124;11.578;2023-07-13T01:04:28;3.33;;;2.60;;
982;SDS011;480;48.124;11.578;2023-07-13T01:06:55;2.20;;;2.00;;
982;SDS011;480;48.124;11.578;2023-07-13T01:09:23;2.83;;;2.63;;
982;SDS011;480;48.124;11.578;2023-07-13T01:11:52;2.70;;;2.43;;
982;SDS011;480;48.124;11.578;2023-07-13T01:14:19;2.47;;;2.27;;
982;SDS011;480;48.124;11.578;2023-07-13T01:16:47;2.50;;;2.30;;
982;SDS011;480;48.124;11.578;2023-07-13T01:19:21;2.57;;;2.37;;
982;SDS011;480;48.124;11.578;2023-07-13T01:22:02;2.53;;;2.33;;
982;SDS011;480;48.124;11.578;2023-07-13T01:24:30;4.73;;;2.67;;
982;SDS011;480;48.124;11.578;2023-07-13T01:26:57;2.93;;;2.73;;
982;SDS011;480;48.124;11.578;2023-07-13T01:29:24;3.07;;;2.87;;
982;SDS011;480;48.124;11.578;2023-07-13T01:31:51;3.27;;;3.07;;
982;SDS011;480;48.124;11.578;2023-07-13T01:34:18;5.03;;;3.07;;
982;SDS011;480;48.124;11.578;2023-07-13T01:36:45;2.60;;;2.40;;
982;SDS011;480;48.124;11.578;2023-07-13T01:39:13;4.07;;;2.73;;
982;SDS011;480;48.124;11.578;2023-07-13T01:41:42;3.07;;;2.53;;
982;SDS011;480;48.124;11.578;2023-07-13T01:44:09;3.63;;;3.40;;
982;SDS011;480;48.124;11.578;2023-07-13T01:46:35;2.93;;;2.67;;
982;SDS011;480;48.124;11.578;2023-07-13T01:49:02;2.67;;;2.47;;
982;SDS011;480;48.124;11.578;2023-07-13T01:51:29;3.13;;;2.50;;
982;SDS011;480;48.124;11.578;2023-07-13T01:53:56;2.80;;;2.60;;
982;SDS011;480;48.124;11.578;2023-07-13T01:56:24;2.60;;;2.37;;
982;SDS011;480;48.124;11.578;2023-07-13T01:58:51;2.77;;;2.57;;
982;SDS011;480;48.124;11.578;2023-07-13T02:01:18;3.23;;;2.20;;
982;SDS011;480;48.124;11.578;2023-07-13T02:03:45;2.83;;;2.27;;
982;SDS011;480;48.124;11.578;2023-07-13T02:06:12;3.13;;;2.83;;
982;SDS011;480;48.124;11.578;2023-07-13T02:08:40;2.40;;;2.20;;
982;SDS011;480;48.124;11.578;2023-07-13T02:11:08;2.67;;;2.47;;
982;SDS011;480;48.124;11.578;2023-07-13T02:13:36;3.33;;;2.70;;
982;SDS011;480;48.124;11.578;2023-07-13T02:16:03;2.73;;;2.40;;
982;SDS011;480;48.124;11.578;2023-07-13T02:18:31;3.50;;;2.60;;
982;SDS011;480;48.124;11.578;2023-07-13T02:20:58;2.70;;;2.50;;
982;SDS011;480;48.124;11.578;2023-07-13T02:23:25;2.87;;;2.67;;
982;SDS011;480;48.124;11.578;2023-07-13T02:25:54;2.50;;;2.40;;
982;SDS011;480;48.124;11.578;2023-07-13T02:28:22;3.30;;;2.60;;
982;SDS011;480;48.124;11.578;2023-07-13T02:30:50;2.80;;;2.57;;
982;SDS011;480;48.124;11.578;2023-07-13T02:33:17;2.53;;;2.33;;
982;SDS011;480;48.124;11.578;2023-07-13T02:35:44;3.00;;;2.70;;
982;SDS011;480;48.124;11.578;2023-07-13T02:38:11;4.10;;;3.33;;
982;SDS011;480;48.124;11.578;2023-07-13T02:40:38;2.30;;;2.10;;
982;SDS011;480;48.124;11.578;2023-07-13T02:43:05;3.00;;;2.80;;
982;SDS011;480;48.124;11.578;2023-07-13T02:45:32;3.57;;;3.27;;
982;SDS011;480;48.124;11.578;2023-07-13T02:48:00;3.73;;;3.40;;
982;SDS011;480;48.124;11.578;2023-07-13T02:50:27;3.87;;;3.47;;
982;SDS011;480;48.124;11.578;2023-07-13T02:52:54;3.10;;;2.80;;
982;SDS011;480;48.124;11.578;2023-07-13T02:55:21;4.67;;;3.40;;
982;SDS011;480;48.124;11.578;2023-07-13T02:57:48;3.43;;;2.80;;
982;SDS011;480;48.124;11.578;2023-07-13T03:00:15;3.50;;;3.20;;
982;SDS011;480;48.124;11.578;2023-07-13T03:02:42;5.03;;;4.23;;
982;SDS011;480;48.124;11.578;2023-07-13T03:05:12;4.60;;;4.03;;
982;SDS011;480;48.124;11.578;2023-07-13T03:07:40;4.20;;;3.90;;
982;SDS011;480;48.124;11.578;2023-07-13T03:10:07;3.73;;;3.43;;
982;SDS011;480;48.124;11.578;2023-07-13T03:12:35;4.47;;;3.30;;
982;SDS011;480;48.124;11.578;2023-07-13T03:15:02;5.53;;;4.10;;
982;SDS011;480;48.124;11.578;2023-07-13T03:17:29;6.07;;;3.17;;
982;SDS011;480;48.124;11.578;2023-07-13T03:19:56;5.10;;;4.60;;
982;SDS011;480;48.124;11.578;2023-07-13T03:22:25;3.60;;;3.30;;
982;SDS011;480;48.124;11.578;2023-07-13T03:24:52;4.40;;;4.00;;
982;SDS011;480;48.124;11.578;2023-07-13T03:27:20;5.00;;;3.53;;
982;SDS011;480;48.124;11.578;2023-07-13T03:29:47;5.93;;;4.67;;
982;SDS011;480;48.124;11.578;2023-07-13T03:32:14;5.07;;;3.80;;
982;SDS011;480;48.124;11.578;2023-07-13T03:34:41;6.90;;;4.80;;
982;SDS011;480;48.124;11.578;2023-07-13T03:37:08;4.33;;;3.57;;
982;SDS011;480;48.124;11.578;2023-07-13T03:39:36;5.50;;;3.80;;
982;SDS011;480;48.124;11.578;2023-07-13T03:42:04;3.63;;;3.33;;
982;SDS011;480;48.124;11.578;2023-07-13T03:44:31;2.80;;;2.53;;
982;SDS011;480;48.124;11.578;2023-07-13T03:46:58;4.20;;;3.50;;
982;SDS011;480;48.124;11.578;2023-07-13T03:49:25;7.60;;;3.40;;
982;SDS011;480;48.124;11.578;2023-07-13T03:51:52;6.07;;;3.47;;
982;SDS011;480;48.124;11.578;2023-07-13T03:54:19;3.43;;;3.13;;
982;SDS011;480;48.124;11.578;2023-07-13T03:56:47;3.30;;;2.97;;
982;SDS011;480;48.124;11.578;2023-07-13T03:59:14;3.00;;;2.80;;
982;SDS011;480;48.124;11.578;2023-07-13T04:01:42;3.00;;;2.53;;
982;SDS011;480;48.124;11.578;2023-07-13T04:04:10;3.00;;;2.80;;
982;SDS011;480;48.124;11.578;2023-07-13T04:06:37;3.63;;;3.27;;
982;SDS011;480;48.124;11.578;2023-07-13T04:09:04;6.07;;;3.90;;
982;SDS011;480;48.124;11.578;2023-07-13T04:11:31;4.17;;;3.73;;
982;SDS011;480;48.124;11.578;2023-07-13T04:14:02;3.93;;;3.60;;
982;SDS011;480;48.124;11.578;2023-07-13T04:16:30;4.97;;;3.40;;
982;SDS011;480;48.124;11.578;2023-07-13T04:18:57;3.13;;;2.83;;
982;SDS011;480;48.124;11.578;2023-07-13T04:21:25;3.87;;;3.50;;
982;SDS011;480;48.124;11.578;2023-07-13T04:23:53;2.90;;;2.70;;
982;SDS011;480;48.124;11.578;2023-07-13T04:26:20;4.73;;;2.87;;
982;SDS011;480;48.124;11.578;2023-07-13T04:28:48;2.83;;;2.53;;
982;SDS011;480;48.124;11.578;2023-07-13T04:31:17;3.90;;;3.30;;
982;SDS011;480;48.124;11.578;2023-07-13T04:33:44;3.23;;;2.97;;
982;SDS011;480;48.124;11.578;2023-07-13T04:36:11;5.43;;;2.70;;
982;SDS011;480;48.124;11.578;2023-07-13T04:38:38;3.23;;;2.70;;
982;SDS011;480;48.124;11.578;2023-07-13T04:41:05;3.23;;;2.93;;
982;SDS011;480;48.124;11.578;2023-07-13T04:43:34;3.90;;;3.03;;
982;SDS011;480;48.124;11.578;2023-07-13T04:46:05;4.83;;;2.90;;
982;SDS011;480;48.124;11.578;2023-07-13T04:48:34;2.87;;;2.67;;
982;SDS011;480;48.124;11.578;2023-07-13T04:51:01;3.20;;;2.80;;
982;SDS011;480;48.124;11.578;2023-07-13T04:53:29;3.37;;;3.07;;
982;SDS011;480;48.124;11.578;2023-07-13T04:55:57;4.13;;;3.03;;
982;SDS011;480;48.124;11.578;2023-07-13T04:58:24;3.37;;;2.77;;
982;SDS011;480;48.124;11.578;2023-07-13T05:00:52;3.20;;;2.70;;
982;SDS011;480;48.124;11.578;2023-07-13T05:03:19;3.27;;;2.50;;
982;SDS011;480;48.124;11.578;2023-07-13T05:05:55;3.63;;;2.70;;
982;SDS011;480;48.124;11.578;2023-07-13T05:08:23;3.20;;;2.80;;
982;SDS011;480;48.124;11.578;2023-07-13T05:10:50;3.67;;;2.80;;
982;SDS011;480;48.124;11.578;2023-07-13T05:13:18;3.03;;;2.83;;
982;SDS011;480;48.124;11.578;2023-07-13T05:15:47;3.70;;;2.53;;
982;SDS011;480;48.124;11.578;2023-07-13T05:18:23;3.10;;;2.67;;
982;SDS011;480;48.124;11.578;2023-07-13T05:20:59;3.00;;;2.80;;
982;SDS011;480;48.124;11.578;2023-07-13T05:23:30;3.07;;;2.70;;
982;SDS011;480;48.124;11.578;2023-07-13T05:25:58;3.53;;;3.00;;
982;SDS011;480;48.124;11.578;2023-07-13T05:28:26;7.27;;;3.50;;
982;SDS011;480;48.124;11.578;2023-07-13T05:30:54;3.63;;;3.33;;
982;SDS011;480;48.124;11.578;2023-07-13T05:33:21;4.10;;;3.00;;
982;SDS011;480;48.124;11.578;2023-07-13T05:35:48;5.67;;;3.77;;
982;SDS011;480;48.124;11.578;2023-07-13T05:38:16;3.47;;;3.10;;
982;SDS011;480;48.124;11.578;2023-07-13T05:40:43;5.87;;;3.30;;
982;SDS011;480;48.124;11.578;2023-07-13T05:43:11;4.03;;;2.97;;
982;SDS011;480;48.124;11.578;2023-07-13T05:45:38;3.40;;;2.77;;
982;SDS011;480;48.124;11.578;2023-07-13T05:48:05;3.00;;;2.80;;
982;SDS011;480;48.124;11.578;2023-07-13T05:50:32;3.30;;;3.10;;
982;SDS011;480;48.124;11.578;2023-07-13T05:52:59;3.47;;;3.17;;
982;SDS011;480;48.124;11.578;2023-07-13T05:55:28;4.00;;;3.47;;
982;SDS011;480;48.124;11.578;2023-07-13T05:57:55;4.40;;;3.17;;
982;SDS011;480;48.124;11.578;2023-07-13T06:00:23;3.20;;;3.00;;
982;SDS011;480;48.124;11.578;2023-07-13T06:02:50;3.67;;;3.23;;
982;SDS011;480;48.124;11.578;2023-07-13T06:05:17;2.80;;;2.40;;
982;SDS011;480;48.124;11.578;2023-07-13T06:07:44;3.00;;;2.70;;
982;SDS011;480;48.124;11.578;2023-07-13T06:10:11;2.60;;;2.40;;
982;SDS011;480;48.124;11.578;2023-07-13T06:12:39;3.23;;;3.03;;
982;SDS011;480;48.124;11.578;2023-07-13T06:15:07;2.87;;;2.67;;
982;SDS011;480;48.124;11.578;2023-07-13T06:17:34;3.13;;;2.83;;
982;SDS011;480;48.124;11.578;2023-07-13T06:20:01;4.10;;;3.37;;
982;SDS011;480;48.124;11.578;2023-07-13T06:22:28;3.53;;;2.70;;
982;SDS011;480;48.124;11.578;2023-07-13T06:24:55;3.63;;;3.00;;
982;SDS011;480;48.124;11.578;2023-07-13T06:27:22;4.27;;;3.33;;
982;SDS011;480;48.124;11.578;2023-07-13T06:29:51;2.60;;;2.10;;
982;SDS011;480;48.124;11.578;2023-07-13T06:32:18;3.07;;;2.77;;
982;SDS011;480;48.124;11.578;2023-07-13T06:34:45;3.60;;;3.07;;
982;SDS011;480;48.124;11.578;2023-07-13T06:37:11;4.40;;;3.20;;
982;SDS011;480;48.124;11.578;2023-07-13T06:39:38;4.50;;;2.97;;
982;SDS011;480;48.124;11.578;2023-07-13T06:42:06;2.63;;;2.43;;
982;SDS011;480;48.124;11.578;2023-07-13T06:44:33;3.03;;;2.70;;
982;SDS011;480;48.124;11.578;2023-07-13T06:47:01;4.40;;;2.80;;
982;SDS011;480;48.124;11.578;2023-07-13T06:49:28;3.40;;;2.80;;
982;SDS011;480;48.124;11.578;2023-07-13T06:51:55;4.57;;;2.67;;
982;SDS011;480;48.124;11.578;2023-07-13T06:54:22;2.70;;;2.17;;
982;SDS011;480;48.124;11.578;2023-07-13T06:56:49;2.67;;;2.47;;
982;SDS011;480;48.124;11.578;2023-07-13T06:59:16;3.83;;;2.70;;
982;SDS011;480;48.124;11.578;2023-07-13T07:01:43;3.57;;;3.10;;
982;SDS011;480;48.124;11.578;2023-07-13T07:04:11;3.60;;;2.70;;
982;SDS011;480;48.124;11.578;2023-07-13T07:06:38;3.30;;;3.00;;
982;SDS011;480;48.124;11.578;2023-07-13T07:09:05;3.63;;;2.87;;
982;SDS011;480;48.124;11.578;2023-07-13T07:11:32;2.23;;;2.13;;
982;SDS011;480;48.124;11.578;2023-07-13T07:13:59;4.03;;;3.57;;
982;SDS011;480;48.124;11.578;2023-07-13T07:16:26;3.20;;;2.90;;
982;SDS011;480;48.124;11.578;2023-07-13T07:18:53;3.53;;;2.37;;
982;SDS011;480;48.124;11.578;2023-07-13T07:21:21;2.17;;;2.00;;
982;SDS011;480;48.124;11.578;2023-07-13T07:23:48;2.53;;;2.30;;
982;SDS011;480;48.124;11.578;2023-07-13T07:26:15;2.90;;;2.60;;
982;SDS011;480;48.124;11.578;2023-07-13T07:28:42;4.33;;;3.03;;
982;SDS011;480;48.124;11.578;2023-07-13T07:31:09;3.40;;;2.47;;
982;SDS011;480;48.124;11.578;2023-07-13T07:33:36;4.40;;;2.20;;
982;SDS011;480;48.124;11.578;2023-07-13T07:36:03;3.30;;;2.93;;
982;SDS011;480;48.124;11.578;2023-07-13T07:38:32;4.03;;;2.20;;
982;SDS011;480;48.124;11.578;2023-07-13T07:41:01;2.90;;;2.60;;
982;SDS011;480;48.124;11.578;2023-07-13T07:43:29;3.00;;;2.70;;
982;SDS011;480;48.124;11.578;2023-07-13T07:45:57;2.23;;;2.03;;
982;SDS011;480;48.124;11.578;2023-07-13T07:48:24;4.13;;;3.30;;
982;SDS011;480;48.124;11.578;2023-07-13T07:50:51;3.40;;;2.97;;
982;SDS011;480;48.124;11.578;2023-07-13T07:53:18;4.60;;;3.53;;
982;SDS011;480;48.124;11.578;2023-07-13T07:55:46;3.30;;;2.13;;
982;SDS011;480;48.124;11.578;2023-07-13T07:58:13;5.00;;;2.87;;
982;SDS011;480;48.124;11.578;2023-07-13T08:00:40;2.60;;;2.40;;
982;SDS011;480;48.124;11.578;2023-07-13T08:03:07;5.73;;;2.90;;
982;SDS011;480;48.124;11.578;2023-07-13T08:05:35;8.33;;;2.73;;
982;SDS011;480;48.124;11.578;2023-07-13T08:08:03;3.10;;;2.80;;
982;SDS011;480;48.124;11.578;2023-07-13T08:10:30;3.13;;;2.40;;
982;SDS011;480;48.124;11.578;2023-07-13T08:12:59;2.47;;;2.27;;
982;SDS011;480;48.124;11.578;2023-07-13T08:15:25;2.90;;;2.40;;
982;SDS011;480;48.124;11.578;2023-07-13T08:17:52;2.90;;;2.30;;
982;SDS011;480;48.124;11.578;2023-07-13T08:20:19;6.30;;;3.20;;
982;SDS011;480;48.124;11.578;2023-07-13T08:22:46;3.70;;;2.80;;
982;SDS011;480;48.124;11.578;2023-07-13T08:25:13;5.80;;;2.73;;
982;SDS011;480;48.124;11.578;2023-07-13T08:27:41;2.80;;;2.37;;
982;SDS011;480;48.124;11.578;2023-07-13T08:30:09;3.07;;;2.77;;
982;SDS011;480;48.124;11.578;2023-07-13T08:32:36;2.60;;;2.40;;
982;SDS011;480;48.124;11.578;2023-07-13T08:35:04;4.00;;;2.50;;
982;SDS011;480;48.124;11.578;2023-07-13T08:37:31;3.07;;;2.80;;
982;SDS011;480;48.124;11.578;2023-07-13T08:39:58;3.47;;;3.17;;
982;SDS011;480;48.124;11.578;2023-07-13T08:42:32;3.97;;;3.30;;
982;SDS011;480;48.124;11.578;2023-07-13T08:45:17;3.03;;;2.70;;
982;SDS011;480;48.124;11.578;2023-07-13T08:47:48;5.20;;;3.00;;
982;SDS011;480;48.124;11.578;2023-07-13T08:50:19;2.30;;;1.97;;
982;SDS011;480;48.124;11.578;2023-07-13T08:52:49;4.27;;;2.70;;
982;SDS011;480;48.124;11.578;2023-07-13T08:55:18;3.50;;;2.70;;
982;SDS011;480;48.124;11.578;2023-07-13T08:57:48;3.23;;;3.03;;
982;SDS011;480;48.124;11.578;2023-07-13T09:00:22;6.50;;;2.50;;
982;SDS011;480;48.124;11.578;2023-07-13T09:02:58;3.90;;;1.80;;
982;SDS011;480;48.124;11.578;2023-07-13T09:05:28;4.10;;;2.50;;
982;SDS011;480;48.124;11.578;2023-07-13T09:08:04;2.57;;;2.40;;
982;SDS011;480;48.124;11.578;2023-07-13T09:10:43;5.40;;;2.50;;
982;SDS011;480;48.124;11.578;2023-07-13T09:13:17;10.60;;;2.50;;
982;SDS011;480;48.124;11.578;2023-07-13T09:15:52;2.93;;;2.00;;
982;SDS011;480;48.124;11.578;2023-07-13T09:18:21;3.97;;;3.03;;
982;SDS011;480;48.124;11.578;2023-07-13T09:20:54;5.50;;;3.90;;
982;SDS011;480;48.124;11.578;2023-07-13T09:23:26;3.20;;;2.10;;
982;SDS011;480;48.124;11.578;2023-07-13T09:25:58;2.00;;;1.60;;
982;SDS011;480;48.124;11.578;2023-07-13T09:28:35;2.97;;;2.67;;
982;SDS011;480;48.124;11.578;2023-07-13T09:31:09;3.10;;;1.90;;
982;SDS011;480;48.124;11.578;2023-07-13T09:33:40;4.83;;;2.20;;
982;SDS011;480;48.124;11.578;2023-07-13T09:36:17;3.10;;;1.73;;
982;SDS011;480;48.124;11.578;2023-07-13T09:38:47;1.63;;;1.53;;
982;SDS011;480;48.124;11.578;2023-07-13T09:41:20;2.17;;;1.77;;
982;SDS011;480;48.124;11.578;2023-07-13T09:44:09;2.10;;;1.70;;
982;SDS011;480;48.124;11.578;2023-07-13T09:46:43;2.53;;;1.90;;
982;SDS011;480;48.124;11.578;2023-07-13T09:49:12;2.03;;;1.83;;
982;SDS011;480;48.124;11.578;2023-07-13T09:51:40;3.47;;;2.70;;
982;SDS011;480;48.124;11.578;2023-07-13T09:54:16;2.10;;;1.90;;
982;SDS011;480;48.124;11.578;2023-07-13T09:56:45;1.40;;;1.30;;
982;SDS011;480;48.124;11.578;2023-07-13T09:59:18;3.17;;;3.07;;
982;SDS011;480;48.124;11.578;2023-07-13T10:01:47;2.07;;;1.67;;
982;SDS011;480;48.124;11.578;2023-07-13T10:04:16;1.80;;;1.70;;
982;SDS011;480;48.124;11.578;2023-07-13T10:06:45;2.67;;;2.47;;
982;SDS011;480;48.124;11.578;2023-07-13T10:09:15;2.47;;;1.83;;
982;SDS011;480;48.124;11.578;2023-07-13T10:11:44;2.43;;;2.23;;
982;SDS011;480;48.124;11.578;2023-07-13T10:14:13;2.13;;;1.93;;
982;SDS011;480;48.124;11.578;2023-07-13T10:16:43;2.47;;;1.67;;
982;SDS011;480;48.124;11.578;2023-07-13T10:19:14;3.47;;;2.23;;
982;SDS011;480;48.124;11.578;2023-07-13T10:21:47;3.10;;;2.23;;
982;SDS011;480;48.124;11.578;2023-07-13T10:24:21;9.20;;;2.80;;
982;SDS011;480;48.124;11.578;2023-07-13T10:26:52;1.80;;;1.70;;
982;SDS011;480;48.124;11.578;2023-07-13T10:29:29;3.67;;;2.30;;
982;SDS011;480;48.124;11.578;2023-07-13T10:32:02;2.63;;;2.07;;
982;SDS011;480;48.124;11.578;2023-07-13T10:34:37;1.57;;;1.47;;
982;SDS011;480;48.124;11.578;2023-07-13T10:37:04;3.20;;;1.90;;
982;SDS011;480;48.124;11.578;2023-07-13T10:39:33;2.27;;;2.03;;
982;SDS011;480;48.124;11.578;2023-07-13T10:42:03;1.97;;;1.63;;
982;SDS011;480;48.124;11.578;2023-07-13T10:44:33;1.80;;;1.50;;
982;SDS011;480;48.124;11.578;2023-07-13T10:47:00;2.20;;;1.67;;
982;SDS011;480;48.124;11.578;2023-07-13T10:49:31;2.03;;;1.77;;
982;SDS011;480;48.124;11.578;2023-07-13T10:52:01;2.37;;;1.70;;
982;SDS011;480;48.124;11.578;2023-07-13T10:54:30;1.53;;;1.17;;
982;SDS011;480;48.124;11.578;2023-07-13T10:57:13;1.63;;;1.53;;
982;SDS011;480;48.124;11.578;2023-07-13T10:59:43;4.63;;;3.80;;
982;SDS011;480;48.124;11.578;2023-07-13T11:02:15;1.73;;;1.40;;
982;SDS011;480;48.124;11.578;2023-07-13T11:04:51;2.20;;;1.80;;
982;SDS011;480;48.124;11.578;2023-07-13T11:07:22;3.23;;;1.90;;
982;SDS011;480;48.124;11.578;2023-07-13T11:09:51;2.67;;;1.87;;
982;SDS011;480;48.124;11.578;2023-07-13T11:12:26;4.47;;;1.87;;
982;SDS011;480;48.124;11.578;2023-07-13T11:15:15;1.93;;;1.47;;
982;SDS011;480;48.124;11.578;2023-07-13T11:17:55;2.37;;;2.17;;
982;SDS011;480;48.124;11.578;2023-07-13T11:20:36;2.67;;;1.70;;
982;SDS011;480;48.124;11.578;2023-07-13T11:23:15;2.20;;;1.60;;
982;SDS011;480;48.124;11.578;2023-07-13T11:25:53;4.20;;;1.50;;
982;SDS011;480;48.124;11.578;2023-07-13T11:28:21;2.10;;;2.00;;
982;SDS011;480;48.124;11.578;2023-07-13T11:30:59;4.10;;;1.73;;
982;SDS011;480;48.124;11.578;2023-07-13T11:33:31;6.73;;;2.67;;
982;SDS011;480;48.124;11.578;2023-07-13T11:36:19;3.90;;;2.10;;
982;SDS011;480;48.124;11.578;2023-07-13T11:38:57;2.67;;;2.07;;
982;SDS011;480;48.124;11.578;2023-07-13T11:41:28;2.30;;;2.10;;
982;SDS011;480;48.124;11.578;2023-07-13T11:44:01;3.40;;;2.00;;
982;SDS011;480;48.124;11.578;2023-07-13T11:46:32;2.33;;;1.50;;
982;SDS011;480;48.124;11.578;2023-07-13T11:48:59;5.93;;;1.90;;
982;SDS011;480;48.124;11.578;2023-07-13T11:51:27;5.40;;;1.80;;
982;SDS011;480;48.124;11.578;2023-07-13T11:53:59;2.93;;;1.60;;
982;SDS011;480;48.124;11.578;2023-07-13T11:56:30;2.87;;;2.07;;
982;SDS011;480;48.124;11.578;2023-07-13T11:59:03;2.23;;;1.60;;
982;SDS011;480;48.124;11.578;2023-07-13T12:01:32;2.03;;;1.47;;
982;SDS011;480;48.124;11.578;2023-07-13T12:03:59;2.33;;;1.47;;
982;SDS011;480;48.124;11.578;2023-07-13T12:06:28;3.33;;;1.60;;
982;SDS011;480;48.124;11.578;2023-07-13T12:08:58;2.27;;;1.87;;
982;SDS011;480;48.124;11.578;2023-07-13T12:11:28;2.13;;;1.90;;
982;SDS011;480;48.124;11.578;2023-07-13T12:13:56;2.40;;;1.60;;
982;SDS011;480;48.124;11.578;2023-07-13T12:16:26;3.50;;;1.70;;
982;SDS011;480;48.124;11.578;2023-07-13T12:18:54;2.40;;;2.00;;
982;SDS011;480;48.124;11.578;2023-07-13T12:21:24;3.10;;;1.90;;
982;SDS011;480;48.124;11.578;2023-07-13T12:23:59;4.00;;;1.80;;
982;SDS011;480;48.124;11.578;2023-07-13T12:26:29;3.80;;;2.10;;
982;SDS011;480;48.124;11.578;2023-07-13T12:28:58;2.20;;;1.70;;
982;SDS011;480;48.124;11.578;2023-07-13T12:31:30;3.93;;;1.97;;
982;SDS011;480;48.124;11.578;2023-07-13T12:34:00;1.60;;;1.50;;
982;SDS011;480;48.124;11.578;2023-07-13T12:36:33;3.47;;;2.40;;
982;SDS011;480;48.124;11.578;2023-07-13T12:39:06;1.83;;;1.60;;
982;SDS011;480;48.124;11.578;2023-07-13T12:41:40;2.40;;;1.60;;
982;SDS011;480;48.124;11.578;2023-07-13T12:44:10;3.50;;;2.10;;
982;SDS011;480;48.124;11.578;2023-07-13T12:46:38;3.87;;;1.77;;
982;SDS011;480;48.124;11.578;2023-07-13T12:49:06;2.33;;;1.93;;
982;SDS011;480;48.124;11.578;2023-07-13T12:51:34;1.70;;;1.60;;
982;SDS011;480;48.124;11.578;2023-07-13T12:54:11;2.20;;;1.70;;
982;SDS011;480;48.124;11.578;2023-07-13T12:56:42;3.37;;;2.00;;
982;SDS011;480;48.124;11.578;2023-07-13T12:59:13;3.90;;;2.17;;
982;SDS011;480;48.124;11.578;2023-07-13T13:01:44;2.00;;;1.77;;
982;SDS011;480;48.124;11.578;2023-07-13T13:04:14;2.60;;;2.30;;
982;SDS011;480;48.124;11.578;2023-07-13T13:06:46;2.80;;;1.87;;
982;SDS011;480;48.124;11.578;2023-07-13T13:09:15;2.40;;;1.80;;
982;SDS011;480;48.124;11.578;2023-07-13T13:11:43;3.83;;;1.80;;
982;SDS011;480;48.124;11.578;2023-07-13T13:14:10;2.90;;;1.90;;
982;SDS011;480;48.124;11.578;2023-07-13T13:16:39;5.03;;;1.90;;
982;SDS011;480;48.124;11.578;2023-07-13T13:19:13;3.50;;;1.97;;
982;SDS011;480;48.124;11.578;2023-07-13T13:21:42;5.50;;;2.17;;
982;SDS011;480;48.124;11.578;2023-07-13T13:24:11;31.90;;;30.33;;
982;SDS011;480;48.124;11.578;2023-07-13T13:26:40;3.93;;;2.10;;
982;SDS011;480;48.124;11.578;2023-07-13T13:29:10;2.83;;;1.50;;
982;SDS011;480;48.124;11.578;2023-07-13T13:31:40;868.83;;;811.87;;
982;SDS011;480;48.124;11.578;2023-07-13T13:34:08;6.57;;;2.80;;
982;SDS011;480;48.124;11.578;2023-07-13T13:36:36;4.83;;;1.77;;
982;SDS011;480;48.124;11.578;2023-07-13T13:39:05;5.47;;;2.30;;
982;SDS011;480;48.124;11.578;2023-07-13T13:41:47;5.40;;;2.33;;
982;SDS011;480;48.124;11.578;2023-07-13T13:44:15;4.47;;;1.90;;
982;SDS011;480;48.124;11.578;2023-07-13T13:46:43;17.27;;;16.33;;
982;SDS011;480;48.124;11.578;2023-07-13T13:49:13;5.57;;;3.03;;
982;SDS011;480;48.124;11.578;2023-07-13T13:51:42;3.40;;;1.93;;
982;SDS011;480;48.124;11.578;2023-07-13T13:54:10;4.83;;;2.23;;
982;SDS011;480;48.124;11.578;2023-07-13T13:56:41;5.80;;;2.17;;
982;SDS011;480;48.124;11.578;2023-07-13T13:59:10;6.00;;;2.07;;
982;SDS011;480;48.124;11.578;2023-07-13T14:01:37;4.37;;;1.90;;
982;SDS011;480;48.124;11.578;2023-07-13T14:04:05;4.93;;;2.07;;
982;SDS011;480;48.124;11.578;2023-07-13T14:06:33;4.90;;;2.07;;
982;SDS011;480;48.124;11.578;2023-07-13T14:09:00;2.70;;;1.80;;
982;SDS011;480;48.124;11.578;2023-07-13T14:11:28;2.83;;;1.83;;
982;SDS011;480;48.124;11.578;2023-07-13T14:13:58;1.93;;;1.60;;
982;SDS011;480;48.124;11.578;2023-07-13T14:16:29;2.80;;;1.70;;
982;SDS011;480;48.124;11.578;2023-07-13T14:18:58;2.70;;;2.43;;
982;SDS011;480;48.124;11.578;2023-07-13T14:21:28;2.00;;;1.47;;
982;SDS011;480;48.124;11.578;2023-07-13T14:23:55;3.13;;;2.03;;
982;SDS011;480;48.124;11.578;2023-07-13T14:26:24;2.83;;;2.00;;
982;SDS011;480;48.124;11.578;2023-07-13T14:28:53;3.17;;;1.87;;
982;SDS011;480;48.124;11.578;2023-07-13T14:31:20;3.20;;;1.77;;
982;SDS011;480;48.124;11.578;2023-07-13T14:33:50;5.47;;;2.00;;
982;SDS011;480;48.124;11.578;2023-07-13T14:36:21;1193.40;;;999.90;;
982;SDS011;480;48.124;11.578;2023-07-13T14:38:52;992.50;;;901.90;;
982;SDS011;480;48.124;11.578;2023-07-13T14:41:19;1001.90;;;897.07;;
982;SDS011;480;48.124;11.578;2023-07-13T14:43:46;1041.80;;;968.73;;
982;SDS011;480;48.124;11.578;2023-07-13T14:49:04;1568.93;;;999.90;;
982;SDS011;480;48.124;11.578;2023-07-13T14:51:36;1836.63;;;999.90;;
982;SDS011;480;48.124;11.578;2023-07-13T14:54:04;1999.90;;;999.90;;
982;SDS011;480;48.124;11.578;2023-07-13T14:56:34;1999.90;;;999.90;;
982;SDS011;480;48.124;11.578;2023-07-13T14:59:01;1999.90;;;999.90;;
982;SDS011;480;48.124;11.578;2023-07-13T15:01:28;1999.90;;;999.90;;
982;SDS011;480;48.124;11.578;2023-07-13T15:03:55;1999.90;;;999.90;;
982;SDS011;480;48.124;11.578;2023-07-13T15:06:25;1999.90;;;999.90;;
982;SDS011;480;48.124;11.578;2023-07-13T15:08:54;1999.90;;;999.90;;
982;SDS011;480;48.124;11.578;2023-07-13T15:11:21;1999.90;;;999.90;;
982;SDS011;480;48.124;11.578;2023-07-13T15:13:48;1999.90;;;999.90;;
982;SDS011;480;48.124;11.578;2023-07-13T15:16:16;1999.90;;;999.90;;
982;SDS011;480;48.124;11.578;2023-07-13T15:18:47;1999.90;;;999.90;;
982;SDS011;480;48.124;11.578;2023-07-13T15:21:16;1999.90;;;999.90;;
982;SDS011;480;48.124;11.578;2023-07-13T15:23:48;1999.90;;;999.90;;
982;SDS011;480;48.124;11.578;2023-07-13T15:26:16;1999.90;;;999.90;;
982;SDS011;480;48.124;11.578;2023-07-13T15:28:44;1999.90;;;999.90;;
982;SDS011;480;48.124;11.578;2023-07-13T15:31:18;1999.90;;;999.90;;
982;SDS011;480;48.124;11.578;2023-07-13T15:33:48;1999.90;;;999.90;;
982;SDS011;480;48.124;11.578;2023-07-13T15:36:16;1999.90;;;999.90;;
982;SDS011;480;48.124;11.578;2023-07-13T15:38:44;1999.90;;;999.90;;